Time;durP1;ratioP1;P1;durP2;ratioP2;P2;SDS_P1;SDS_P2;PMS_P1;PMS_P2;Temp;Humidity;BMP_temperature;BMP_pressure;BME280_temperature;BME280_humidity;BME280_pressure;Samples;Min_cycle;Max_cycle;Signal;HPM_P1;HPM_P2
2023/07/05 00:00:43;;;;;;;5.75;4.68;;;17.50;99.90;;;;;;5050549;28;20470;-79
2023/07/05 00:03:09;;;;;;;5.60;4.38;;;17.50;99.90;;;;;;5051045;28;20109;-78
2023/07/05 00:05:36;;;;;;;8.85;4.55;;;17.50;99.90;;;;;;5052269;28;20355;-78
2023/07/05 00:08:02;;;;;;;5.85;4.47;;;17.50;99.90;;;;;;5052270;28;20024;-79
2023/07/05 00:10:27;;;;;;;4.95;4.40;;;17.50;99.90;;;;;;5052127;28;20054;-78
2023/07/05 00:12:53;;;;;;;5.72;4.38;;;17.50;99.90;;;;;;5052044;28;20033;-78
2023/07/05 00:15:19;;;;;;;6.90;4.75;;;17.60;99.90;;;;;;5050831;28;20035;-78
2023/07/05 00:17:45;;;;;;;5.90;4.82;;;17.50;99.90;;;;;;5050719;28;20410;-78
2023/07/05 00:20:11;;;;;;;7.82;4.70;;;17.50;99.90;;;;;;5050703;28;20025;-79
2023/07/05 00:22:36;;;;;;;6.90;4.05;;;17.50;99.90;;;;;;5051937;28;20036;-79
2023/07/05 00:25:03;;;;;;;5.82;4.30;;;17.50;99.90;;;;;;5050726;28;20024;-80
2023/07/05 00:27:29;;;;;;;7.00;4.90;;;17.50;99.90;;;;;;5050656;28;20021;-80
2023/07/05 00:29:54;;;;;;;6.18;4.68;;;17.50;99.90;;;;;;5050652;28;20031;-80
2023/07/05 00:32:21;;;;;;;7.72;4.30;;;17.40;99.90;;;;;;5051803;28;20032;-80
2023/07/05 00:34:46;;;;;;;6.25;4.05;;;17.50;99.90;;;;;;5050615;28;20024;-80
2023/07/05 00:37:12;;;;;;;7.15;4.22;;;17.40;99.90;;;;;;5050512;28;20018;-80
2023/07/05 00:39:38;;;;;;;5.40;4.18;;;17.50;99.90;;;;;;5050536;28;20588;-79
2023/07/05 00:42:04;;;;;;;6.57;3.70;;;17.50;99.90;;;;;;5050311;28;20065;-80
2023/07/05 00:44:30;;;;;;;6.10;4.18;;;17.50;99.90;;;;;;5049588;28;20021;-80
2023/07/05 00:47:08;;;;;;;5.25;4.15;;;17.50;99.90;;;;;;5051541;28;20052;-78
2023/07/05 00:49:37;;;;;;;6.97;4.50;;;17.50;99.90;;;;;;5051532;28;20037;-80
2023/07/05 00:52:09;;;;;;;8.73;4.13;;;17.50;99.90;;;;;;5051606;28;20390;-78
2023/07/05 00:54:41;;;;;;;9.20;4.20;;;17.50;99.90;;;;;;5050283;28;20113;-78
2023/07/05 00:57:15;;;;;;;5.03;3.90;;;17.40;99.90;;;;;;5051441;28;20100;-79
2023/07/05 00:59:45;;;;;;;7.47;4.45;;;17.30;99.90;;;;;;5050136;28;20053;-78
2023/07/05 01:02:11;;;;;;;8.82;4.60;;;17.20;99.90;;;;;;5051322;28;20026;-78
2023/07/05 01:04:36;;;;;;;6.85;3.95;;;17.20;99.90;;;;;;5123786;27;20023;-78
2023/07/05 01:07:02;;;;;;;6.13;3.97;;;17.20;99.90;;;;;;5126391;27;20026;-79
2023/07/05 01:09:29;;;;;;;8.20;4.43;;;17.20;99.90;;;;;;5049899;28;20029;-79
2023/07/05 01:12:04;;;;;;;6.40;4.75;;;17.20;99.90;;;;;;5050023;28;20053;-78
2023/07/05 01:14:29;;;;;;;7.90;4.60;;;17.00;99.90;;;;;;5049903;28;20390;-78
2023/07/05 01:17:24;;;;;;;6.65;4.53;;;16.90;99.90;;;;;;5049732;28;20027;-79
2023/07/05 01:20:04;;;;;;;5.97;4.28;;;16.90;99.90;;;;;;5051158;28;20504;-80
2023/07/05 01:22:48;;;;;;;4.88;3.97;;;16.80;99.90;;;;;;5049860;28;20381;-79
2023/07/05 01:25:32;;;;;;;9.27;4.78;;;16.80;99.90;;;;;;5051162;28;20177;-79
2023/07/05 01:28:16;;;;;;;8.50;4.47;;;16.80;99.90;;;;;;5051226;28;20385;-79
2023/07/05 01:31:03;;;;;;;5.75;4.55;;;16.70;99.90;;;;;;5049574;28;20040;-79
2023/07/05 01:33:49;;;;;;;7.35;4.72;;;16.70;99.90;;;;;;5049613;28;20029;-79
2023/07/05 01:36:15;;;;;;;5.10;4.38;;;16.70;99.90;;;;;;5049791;28;20017;-79
2023/07/05 01:38:41;;;;;;;6.93;4.38;;;16.60;99.90;;;;;;5030901;28;20042;-79
2023/07/05 01:41:07;;;;;;;5.88;4.43;;;16.60;99.90;;;;;;5029571;28;20053;-79
2023/07/05 01:43:36;;;;;;;8.88;5.38;;;16.50;99.90;;;;;;5029597;28;20026;-79
2023/07/05 01:46:22;;;;;;;6.18;4.80;;;16.50;99.90;;;;;;5029429;28;20049;-79
2023/07/05 01:49:16;;;;;;;7.90;4.50;;;16.40;99.90;;;;;;5030609;28;20048;-79
2023/07/05 01:52:03;;;;;;;7.40;4.60;;;16.40;99.90;;;;;;5029491;28;20018;-79
2023/07/05 01:54:59;;;;;;;6.03;4.63;;;16.40;99.90;;;;;;5030815;28;20034;-79
2023/07/05 01:57:39;;;;;;;5.43;4.88;;;16.30;99.90;;;;;;5029419;28;20501;-79
2023/07/05 02:00:08;;;;;;;5.43;4.00;;;16.30;99.90;;;;;;5030717;28;20387;-80
2023/07/05 02:02:38;;;;;;;6.80;4.57;;;16.20;99.90;;;;;;5029350;28;20486;-79
2023/07/05 02:05:06;;;;;;;5.72;4.45;;;16.20;99.90;;;;;;5030532;28;20032;-80
2023/07/05 02:07:33;;;;;;;5.07;4.28;;;16.10;99.90;;;;;;5029287;28;20032;-80
2023/07/05 02:09:58;;;;;;;9.73;4.50;;;16.10;99.90;;;;;;5029329;28;20398;-80
2023/07/05 02:12:26;;;;;;;6.13;5.03;;;16.10;99.90;;;;;;5030522;28;20022;-80
2023/07/05 02:14:52;;;;;;;7.63;4.80;;;16.00;99.90;;;;;;5030922;28;20059;-80
2023/07/05 02:17:19;;;;;;;8.75;5.00;;;16.00;99.90;;;;;;5029184;28;20049;-80
2023/07/05 02:19:45;;;;;;;7.88;5.25;;;15.90;99.90;;;;;;5030366;28;20025;-80
2023/07/05 02:22:11;;;;;;;7.10;4.65;;;15.90;99.90;;;;;;5029231;28;20048;-80
2023/07/05 02:24:37;;;;;;;7.05;4.68;;;15.80;99.90;;;;;;5029059;28;20074;-80
2023/07/05 02:27:03;;;;;;;5.90;4.47;;;15.80;99.90;;;;;;5028985;28;20018;-80
2023/07/05 02:29:32;;;;;;;9.80;4.40;;;15.70;99.90;;;;;;5028973;28;20029;-80
2023/07/05 02:32:00;;;;;;;5.95;4.57;;;15.70;99.90;;;;;;5030233;28;20026;-80
2023/07/05 02:34:27;;;;;;;10.18;5.20;;;15.70;99.90;;;;;;5030361;28;20506;-79
2023/07/05 02:36:52;;;;;;;5.85;5.10;;;15.70;99.90;;;;;;5028826;28;20383;-79
2023/07/05 02:39:18;;;;;;;6.90;4.70;;;15.60;99.90;;;;;;5028833;28;20029;-79
2023/07/05 02:41:44;;;;;;;6.15;4.40;;;15.60;99.90;;;;;;5028634;28;20045;-79
2023/07/05 02:44:09;;;;;;;5.63;4.28;;;15.60;99.90;;;;;;5030231;28;20025;-79
2023/07/05 02:46:36;;;;;;;6.57;4.85;;;15.60;99.90;;;;;;5029951;28;20475;-79
2023/07/05 02:49:02;;;;;;;5.78;3.95;;;15.60;99.90;;;;;;5028758;28;20040;-79
2023/07/05 02:51:28;;;;;;;6.38;4.75;;;15.50;99.90;;;;;;5029876;28;20037;-79
2023/07/05 02:53:54;;;;;;;5.60;4.30;;;15.50;99.90;;;;;;5030016;28;20025;-79
2023/07/05 02:56:20;;;;;;;7.75;5.10;;;15.50;99.90;;;;;;5028800;28;20104;-78
2023/07/05 02:58:46;;;;;;;6.90;4.40;;;15.60;99.90;;;;;;5028609;28;20032;-79
2023/07/05 03:01:12;;;;;;;5.57;4.65;;;15.50;99.90;;;;;;5028532;28;20033;-79
2023/07/05 03:03:37;;;;;;;9.60;4.95;;;15.60;99.90;;;;;;5029901;28;20391;-79
2023/07/05 03:06:04;;;;;;;7.80;4.45;;;15.60;99.90;;;;;;5029890;28;20028;-80
2023/07/05 03:08:30;;;;;;;6.90;4.97;;;15.60;99.90;;;;;;5033222;28;20470;-80
2023/07/05 03:10:56;;;;;;;6.50;5.03;;;15.60;99.90;;;;;;5031866;28;20041;-80
2023/07/05 03:13:25;;;;;;;7.07;4.32;;;15.60;99.90;;;;;;5033252;28;20078;-80
2023/07/05 03:15:51;;;;;;;7.60;4.20;;;15.60;99.90;;;;;;5033237;28;20029;-80
2023/07/05 03:18:17;;;;;;;6.50;4.70;;;15.60;99.90;;;;;;5031968;28;20026;-79
2023/07/05 03:20:46;;;;;;;8.07;5.60;;;15.60;99.90;;;;;;5031688;28;20021;-79
2023/07/05 03:23:11;;;;;;;7.93;5.57;;;15.70;99.90;;;;;;5031854;28;20474;-80
2023/07/05 03:25:37;;;;;;;7.45;5.40;;;15.60;99.90;;;;;;5031728;28;20032;-80
2023/07/05 03:28:03;;;;;;;7.97;5.82;;;15.60;99.90;;;;;;5031782;28;20368;-80
2023/07/05 03:30:29;;;;;;;6.57;4.28;;;15.60;99.90;;;;;;5032887;28;20033;-80
2023/07/05 03:32:54;;;;;;;5.40;4.40;;;15.60;99.90;;;;;;5032704;28;20465;-79
2023/07/05 03:35:20;;;;;;;8.23;4.43;;;15.50;99.90;;;;;;5031668;28;20082;-79
2023/07/05 03:37:45;;;;;;;7.70;4.22;;;15.50;99.90;;;;;;5031644;28;20082;-79
2023/07/05 03:40:11;;;;;;;5.43;4.45;;;15.60;99.90;;;;;;5032630;28;20104;-80
2023/07/05 03:42:37;;;;;;;4.88;4.03;;;15.60;99.90;;;;;;5032761;28;20022;-80
2023/07/05 03:45:03;;;;;;;9.05;4.60;;;15.70;99.90;;;;;;5031416;28;20025;-79
2023/07/05 03:47:29;;;;;;;9.38;4.50;;;15.70;99.90;;;;;;5032631;28;20390;-79
2023/07/05 03:49:55;;;;;;;7.57;4.97;;;15.70;99.90;;;;;;5031252;28;20074;-80
2023/07/05 03:52:21;;;;;;;6.88;4.25;;;15.80;99.90;;;;;;5031284;28;20025;-79
2023/07/05 03:54:47;;;;;;;7.78;4.45;;;15.90;99.90;;;;;;5032688;28;20082;-79
2023/07/05 03:57:12;;;;;;;5.68;4.53;;;15.90;99.90;;;;;;5032589;28;20021;-79
2023/07/05 03:59:39;;;;;;;6.03;4.60;;;15.90;99.90;;;;;;5031317;28;20021;-79
2023/07/05 04:02:05;;;;;;;8.18;5.07;;;15.90;99.90;;;;;;5031010;28;20585;-79
2023/07/05 04:04:31;;;;;;;7.13;4.45;;;16.00;99.90;;;;;;5032384;28;20030;-79
2023/07/05 04:06:57;;;;;;;13.13;4.70;;;16.20;99.90;;;;;;5032316;28;20022;-78
2023/07/05 04:09:25;;;;;;;8.30;4.50;;;16.40;99.90;;;;;;5032292;28;20041;-78
2023/07/05 04:11:51;;;;;;;8.80;4.75;;;16.70;99.90;;;;;;5031046;28;20018;-78
2023/07/05 04:14:16;;;;;;;7.65;5.00;;;16.70;99.90;;;;;;5030996;28;20455;-79
2023/07/05 04:16:42;;;;;;;7.20;4.82;;;16.90;99.90;;;;;;5030976;28;20021;-79
2023/07/05 04:19:09;;;;;;;13.43;5.22;;;17.10;99.90;;;;;;5030070;28;20033;-79
2023/07/05 04:21:34;;;;;;;6.53;4.40;;;17.30;99.90;;;;;;5032307;28;20401;-79
2023/07/05 04:24:00;;;;;;;6.15;4.28;;;17.50;99.90;;;;;;5030954;28;20029;-79
2023/07/05 04:26:27;;;;;;;5.28;4.40;;;17.70;99.90;;;;;;5031787;28;20025;-80
2023/07/05 04:28:54;;;;;;;7.60;4.22;;;17.90;99.90;;;;;;5030807;28;20061;-78
2023/07/05 04:31:24;;;;;;;7.10;4.07;;;18.10;99.90;;;;;;5031971;28;20118;-80
2023/07/05 04:33:50;;;;;;;5.50;3.83;;;18.40;99.90;;;;;;5031451;28;20026;-80
2023/07/05 04:36:16;;;;;;;5.18;3.47;;;18.70;99.90;;;;;;5030513;28;20064;-79
2023/07/05 04:38:41;;;;;;;5.78;3.67;;;19.00;99.90;;;;;;5031701;28;20057;-79
2023/07/05 04:41:08;;;;;;;6.97;4.30;;;19.30;98.20;;;;;;5038160;28;20033;-79
2023/07/05 04:43:34;;;;;;;5.78;4.45;;;19.50;98.80;;;;;;5042048;28;20161;-79
2023/07/05 04:46:00;;;;;;;8.05;4.97;;;19.70;92.80;;;;;;5040703;28;20014;-80
2023/07/05 04:48:28;;;;;;;7.10;3.83;;;19.90;86.80;;;;;;5047095;28;20040;-80
2023/07/05 04:50:54;;;;;;;7.00;3.70;;;20.20;84.30;;;;;;5039340;28;20042;-79
2023/07/05 04:53:22;;;;;;;9.18;3.72;;;20.30;83.70;;;;;;5042379;28;20101;-78
2023/07/05 04:55:50;;;;;;;6.80;4.40;;;20.40;81.40;;;;;;5049379;28;20032;-79
2023/07/05 04:58:16;;;;;;;8.50;4.20;;;20.60;82.80;;;;;;5051528;28;20028;-79
2023/07/05 05:00:49;;;;;;;8.77;4.70;;;20.80;81.90;;;;;;5045951;28;20025;-79
2023/07/05 05:03:21;;;;;;;;;;;20.90;80.60;;;;;;5031959;28;20026;-78
2023/07/05 05:05:54;;;;;;;6.88;4.40;;;21.10;79.50;;;;;;5036823;28;19909;-78
2023/07/05 05:08:20;;;;;;;7.38;4.47;;;21.20;78.50;;;;;;5040251;28;20014;-78
2023/07/05 05:10:50;;;;;;;7.53;4.43;;;21.30;77.20;;;;;;5042201;28;20037;-78
2023/07/05 05:13:16;;;;;;;7.10;5.07;;;21.40;76.20;;;;;;5033141;28;20032;-79
2023/07/05 05:15:42;;;;;;;8.30;4.70;;;21.40;76.40;;;;;;5030573;28;20030;-79
2023/07/05 05:18:09;;;;;;;9.32;4.72;;;21.60;76.40;;;;;;5037984;28;20049;-78
2023/07/05 05:20:37;;;;;;;7.57;4.88;;;21.60;74.70;;;;;;5036171;28;20431;-79
2023/07/05 05:23:03;;;;;;;10.00;5.30;;;21.80;76.10;;;;;;5049489;28;20032;-79
2023/07/05 05:25:29;;;;;;;7.55;4.88;;;21.90;75.10;;;;;;5049811;28;20029;-78
2023/07/05 05:27:54;;;;;;;5.90;4.20;;;22.00;74.80;;;;;;5048926;28;20017;-78
2023/07/05 05:30:20;;;;;;;6.60;4.72;;;22.00;73.80;;;;;;5049017;28;20029;-79
2023/07/05 05:32:46;;;;;;;9.73;5.75;;;22.10;72.90;;;;;;5050705;28;20023;-79
2023/07/05 05:35:13;;;;;;;9.27;4.90;;;22.00;75.00;;;;;;5050104;28;20021;-80
2023/07/05 05:37:39;;;;;;;10.60;6.18;;;22.00;74.60;;;;;;5048900;28;20021;-79
2023/07/05 05:40:06;;;;;;;7.75;4.57;;;22.10;74.10;;;;;;5047389;28;20683;-79
2023/07/05 05:42:31;;;;;;;9.10;4.93;;;22.10;75.20;;;;;;5044720;28;20052;-79
2023/07/05 05:44:57;;;;;;;10.63;5.88;;;22.20;74.20;;;;;;5027690;28;20467;-79
2023/07/05 05:47:23;;;;;;;9.07;5.90;;;22.20;74.80;;;;;;5028729;28;20024;-79
2023/07/05 05:49:48;;;;;;;6.55;4.95;;;22.20;76.30;;;;;;5027510;28;20142;-80
2023/07/05 05:52:14;;;;;;;10.40;5.82;;;22.30;77.20;;;;;;5029300;28;20125;-79
2023/07/05 05:54:39;;;;;;;10.75;6.32;;;22.30;77.90;;;;;;5030902;28;20025;-80
2023/07/05 05:57:05;;;;;;;9.02;5.65;;;22.30;76.70;;;;;;5029381;28;20018;-79
2023/07/05 05:59:31;;;;;;;11.90;5.60;;;22.50;77.40;;;;;;5029633;28;20026;-79
2023/07/05 06:01:56;;;;;;;8.48;6.63;;;22.50;77.10;;;;;;5030778;28;20025;-79
2023/07/05 06:04:22;;;;;;;6.80;5.57;;;22.60;76.30;;;;;;5029243;28;20081;-80
2023/07/05 06:06:48;;;;;;;7.80;5.70;;;22.70;78.10;;;;;;5030472;28;20057;-79
2023/07/05 06:09:16;;;;;;;7.57;5.85;;;22.80;74.90;;;;;;5029184;28;20017;-80
2023/07/05 06:11:42;;;;;;;13.00;6.43;;;22.90;74.10;;;;;;5029168;28;20474;-80
2023/07/05 06:14:08;;;;;;;9.40;6.00;;;23.00;75.10;;;;;;5029317;28;20028;-80
2023/07/05 06:16:34;;;;;;;8.07;6.03;;;23.10;75.10;;;;;;5030549;28;20386;-78
2023/07/05 06:19:00;;;;;;;11.90;6.45;;;23.00;74.70;;;;;;5027553;28;20038;-79
2023/07/05 06:21:25;;;;;;;9.90;6.38;;;23.20;75.00;;;;;;5028596;28;20033;-79
2023/07/05 06:23:52;;;;;;;12.43;6.45;;;23.30;74.80;;;;;;5028425;28;20037;-79
2023/07/05 06:26:20;;;;;;;11.57;5.80;;;23.30;73.60;;;;;;5027209;28;20032;-79
2023/07/05 06:28:46;;;;;;;6.97;6.28;;;23.50;72.70;;;;;;5028424;28;20030;-80
2023/07/05 06:31:12;;;;;;;12.27;5.50;;;23.60;71.80;;;;;;5028498;28;20036;-80
2023/07/05 06:33:39;;;;;;;18.10;7.28;;;23.80;71.90;;;;;;5028446;28;20517;-80
2023/07/05 06:36:06;;;;;;;7.13;6.15;;;24.00;71.10;;;;;;5030399;28;20429;-80
2023/07/05 06:38:32;;;;;;;16.60;7.07;;;24.10;70.40;;;;;;5030414;28;20021;-80
2023/07/05 06:40:58;;;;;;;14.27;6.47;;;24.10;70.00;;;;;;5030169;28;20057;-80
2023/07/05 06:43:25;;;;;;;10.00;5.88;;;24.10;68.30;;;;;;5032163;28;20467;-80
2023/07/05 06:45:53;;;;;;;12.18;6.00;;;24.30;68.60;;;;;;5033709;28;20041;-80
2023/07/05 06:48:19;;;;;;;13.10;6.07;;;24.50;69.60;;;;;;5032566;28;20068;-79
2023/07/05 06:50:52;;;;;;;8.52;6.53;;;24.50;68.00;;;;;;5032461;28;20459;-80
2023/07/05 06:53:17;;;;;;;11.95;5.47;;;24.60;68.40;;;;;;5032483;28;20029;-81
2023/07/05 06:55:45;;;;;;;9.32;5.63;;;24.80;67.50;;;;;;5033559;28;20478;-80
2023/07/05 06:58:11;;;;;;;19.70;5.47;;;24.90;66.70;;;;;;5032387;28;20030;-81
2023/07/05 07:00:37;;;;;;;6.30;4.65;;;25.10;66.20;;;;;;5032110;28;20026;-80
2023/07/05 07:03:02;;;;;;;9.15;5.65;;;25.20;65.80;;;;;;5032373;28;20030;-79
2023/07/05 07:05:30;;;;;;;6.35;5.53;;;25.30;63.80;;;;;;5032268;28;20018;-79
2023/07/05 07:07:56;;;;;;;9.05;5.50;;;25.50;63.70;;;;;;5033465;28;20074;-81
2023/07/05 07:10:22;;;;;;;8.25;5.50;;;25.60;64.10;;;;;;5033164;28;20037;-80
2023/07/05 07:12:47;;;;;;;6.85;5.30;;;25.80;65.00;;;;;;5032075;28;20101;-80
2023/07/05 07:15:13;;;;;;;8.20;5.05;;;26.00;63.20;;;;;;5033309;28;20053;-79
2023/07/05 07:17:39;;;;;;;4.63;4.10;;;26.00;62.90;;;;;;5033292;28;20382;-80
2023/07/05 07:20:05;;;;;;;8.35;5.45;;;26.20;59.40;;;;;;5032203;28;20026;-81
2023/07/05 07:22:31;;;;;;;5.68;3.95;;;26.30;59.40;;;;;;5031849;28;20387;-80
2023/07/05 07:24:56;;;;;;;10.93;5.13;;;26.50;60.00;;;;;;5032119;28;20028;-80
2023/07/05 07:27:22;;;;;;;6.47;4.30;;;26.50;59.40;;;;;;5033145;28;20030;-79
2023/07/05 07:29:48;;;;;;;8.48;4.25;;;26.70;57.50;;;;;;5033030;28;20037;-81
2023/07/05 07:32:13;;;;;;;6.43;4.10;;;26.60;54.60;;;;;;5031684;28;20064;-79
2023/07/05 07:34:40;;;;;;;6.32;4.25;;;26.60;54.60;;;;;;5033152;28;20117;-80
2023/07/05 07:37:05;;;;;;;7.45;4.63;;;26.80;54.00;;;;;;5031657;28;20025;-79
2023/07/05 07:39:31;;;;;;;7.82;4.55;;;26.90;53.90;;;;;;5032992;28;20509;-80
2023/07/05 07:41:57;;;;;;;8.00;4.70;;;26.90;53.70;;;;;;5031392;28;20049;-80
2023/07/05 07:44:23;;;;;;;7.97;4.25;;;27.10;54.90;;;;;;5032860;28;20387;-79
2023/07/05 07:46:48;;;;;;;7.40;3.88;;;26.90;52.30;;;;;;5032916;28;20148;-79
2023/07/05 07:49:14;;;;;;;5.00;3.92;;;26.90;52.70;;;;;;5031695;28;20018;-80
2023/07/05 07:51:44;;;;;;;6.80;3.92;;;26.90;53.00;;;;;;5031483;28;20018;-80
2023/07/05 07:54:15;;;;;;;7.57;4.03;;;27.00;53.00;;;;;;5031315;28;20026;-80
2023/07/05 07:56:46;;;;;;;8.07;4.40;;;27.20;53.00;;;;;;5032857;28;20044;-80
2023/07/05 07:59:13;;;;;;;6.67;4.00;;;27.30;51.40;;;;;;5031407;28;20074;-80
2023/07/05 08:01:39;;;;;;;7.32;4.07;;;27.30;51.00;;;;;;5032581;28;20105;-81
2023/07/05 08:04:09;;;;;;;6.07;3.95;;;27.30;50.70;;;;;;5032700;28;20467;-79
2023/07/05 08:06:48;;;;;;;6.97;4.20;;;27.40;51.00;;;;;;5031495;28;20018;-79
2023/07/05 08:09:21;;;;;;;7.47;4.43;;;27.50;50.00;;;;;;5031136;28;20037;-80
2023/07/05 08:11:47;;;;;;;6.82;4.63;;;27.70;51.70;;;;;;5031635;28;20075;-81
2023/07/05 08:14:13;;;;;;;6.55;4.18;;;27.80;50.30;;;;;;5032408;28;20029;-81
2023/07/05 08:16:40;;;;;;;6.88;4.30;;;27.90;49.80;;;;;;5031225;28;20435;-81
2023/07/05 08:19:06;;;;;;;6.93;4.32;;;28.10;51.40;;;;;;5032464;28;20474;-80
2023/07/05 08:21:32;;;;;;;7.40;4.05;;;28.10;50.30;;;;;;5031046;28;20117;-79
2023/07/05 08:23:58;;;;;;;5.90;4.40;;;28.30;50.30;;;;;;5030979;28;20065;-81
2023/07/05 08:26:24;;;;;;;7.20;4.60;;;28.20;49.90;;;;;;5032153;28;20109;-81
2023/07/05 08:28:49;;;;;;;6.60;4.40;;;28.00;50.30;;;;;;5030971;28;20054;-79
2023/07/05 08:31:16;;;;;;;8.13;4.78;;;28.00;50.60;;;;;;5030812;28;20018;-79
2023/07/05 08:33:43;;;;;;;6.32;4.47;;;28.10;51.10;;;;;;5032182;28;20479;-79
2023/07/05 08:36:15;;;;;;;7.32;4.45;;;28.00;50.10;;;;;;5030717;28;20060;-79
2023/07/05 08:38:49;;;;;;;7.28;3.97;;;28.20;50.40;;;;;;5049496;28;20530;-81
2023/07/05 08:41:33;;;;;;;4.85;4.15;;;28.30;49.80;;;;;;5049683;28;20033;-81
2023/07/05 08:44:17;;;;;;;7.43;5.18;;;28.40;50.00;;;;;;5050477;28;20025;-81
2023/07/05 08:46:47;;;;;;;6.03;4.32;;;28.70;48.50;;;;;;5050416;28;20025;-81
2023/07/05 08:49:29;;;;;;;7.22;4.72;;;28.60;48.10;;;;;;5050229;28;20033;-80
2023/07/05 08:51:56;;;;;;;6.32;3.90;;;28.70;48.00;;;;;;5042272;27;20114;-79
2023/07/05 08:54:22;;;;;;;5.43;4.45;;;28.90;47.50;;;;;;5039540;28;20037;-80
2023/07/05 08:56:59;;;;;;;4.95;3.83;;;29.30;48.10;;;;;;5033351;27;20019;-79
2023/07/05 09:00:11;;;;;;;7.22;4.72;;;29.30;45.30;;;;;;5032009;27;20090;-81
2023/07/05 09:02:37;;;;;;;5.95;4.40;;;29.40;46.30;;;;;;5071227;28;20025;-79
2023/07/05 09:05:04;;;;;;;6.32;4.20;;;29.10;46.40;;;;;;5052677;28;20170;-81
2023/07/05 09:07:54;;;;;;;6.28;4.55;;;28.80;46.50;;;;;;5040895;28;20030;-80
2023/07/05 09:10:37;;;;;;;5.65;4.10;;;28.90;45.90;;;;;;5030164;28;20030;-81
2023/07/05 09:13:19;;;;;;;7.82;4.28;;;29.10;47.20;;;;;;5029239;28;20550;-79
2023/07/05 09:16:06;;;;;;;7.63;3.67;;;29.40;47.20;;;;;;5029409;28;20032;-79
2023/07/05 09:18:50;;;;;;;6.35;3.90;;;29.50;44.40;;;;;;5029479;28;20022;-81
2023/07/05 09:21:36;;;;;;;11.05;4.47;;;29.90;46.10;;;;;;5028130;28;20051;-81
2023/07/05 09:24:07;;;;;;;8.85;4.65;;;30.00;45.30;;;;;;5030457;28;20029;-80
2023/07/05 09:26:37;;;;;;;7.60;3.88;;;29.90;45.40;;;;;;5029741;28;20030;-81
2023/07/05 09:29:21;;;;;;;9.48;5.38;;;29.70;45.60;;;;;;5031434;28;20112;-82
2023/07/05 09:31:49;;;;;;;11.30;4.47;;;29.40;45.50;;;;;;5030143;28;20032;-82
2023/07/05 09:34:28;;;;;;;6.30;3.97;;;29.10;45.90;;;;;;5031071;28;20028;-81
2023/07/05 09:36:53;;;;;;;11.73;4.53;;;28.90;44.60;;;;;;5029618;28;20025;-80
2023/07/05 09:39:41;;;;;;;8.88;4.68;;;28.90;45.00;;;;;;5031012;28;20387;-81
2023/07/05 09:42:15;;;;;;;5.22;4.10;;;28.70;45.30;;;;;;5031129;28;20061;-80
2023/07/05 09:44:40;;;;;;;7.10;4.88;;;28.40;46.90;;;;;;5030941;28;20129;-80
2023/07/05 09:47:07;;;;;;;7.05;5.10;;;28.20;48.20;;;;;;5033185;28;20057;-81
2023/07/05 09:49:33;;;;;;;9.25;4.90;;;28.10;49.30;;;;;;5049244;28;20127;-79
2023/07/05 09:51:59;;;;;;;7.10;4.25;;;27.90;48.10;;;;;;5049313;28;20069;-81
2023/07/05 09:54:30;;;;;;;14.73;4.88;;;27.80;47.70;;;;;;5050739;28;20029;-80
2023/07/05 09:57:09;;;;;;;4.90;3.60;;;27.80;47.70;;;;;;5050683;28;20394;-80
2023/07/05 09:59:36;;;;;;;5.82;3.70;;;28.00;48.40;;;;;;5049336;28;20029;-80
2023/07/05 10:02:12;;;;;;;7.32;4.30;;;28.10;48.80;;;;;;5046014;28;20544;-81
2023/07/05 10:04:45;;;;;;;8.93;4.57;;;28.30;47.10;;;;;;5047628;28;20064;-81
2023/07/05 10:07:20;;;;;;;6.65;4.25;;;28.60;47.50;;;;;;5049167;28;20017;-82
2023/07/05 10:09:59;;;;;;;4.53;3.85;;;28.50;46.00;;;;;;5049017;28;20508;-79
2023/07/05 10:12:34;;;;;;;6.30;3.60;;;28.90;46.10;;;;;;5035429;28;20021;-80
2023/07/05 10:15:00;;;;;;;5.72;4.30;;;29.10;44.50;;;;;;5029156;28;20032;-80
2023/07/05 10:17:47;;;;;;;4.85;3.72;;;29.20;45.40;;;;;;5029191;28;20017;-80
2023/07/05 10:20:23;;;;;;;6.28;4.50;;;29.30;45.90;;;;;;5030273;28;20024;-80
2023/07/05 10:23:14;;;;;;;4.78;4.32;;;29.40;45.60;;;;;;5032222;28;20446;-80
2023/07/05 10:25:41;;;;;;;6.72;3.85;;;29.30;45.20;;;;;;5050088;28;20035;-80
2023/07/05 10:28:12;;;;;;;4.68;3.83;;;29.50;43.00;;;;;;5049771;28;20036;-81
2023/07/05 10:30:52;;;;;;;8.90;4.63;;;29.60;44.80;;;;;;5048708;28;20085;-81
2023/07/05 10:33:20;;;;;;;8.43;4.47;;;29.80;45.00;;;;;;5048740;28;20036;-80
2023/07/05 10:36:09;;;;;;;6.20;4.45;;;29.90;45.00;;;;;;5050208;28;20028;-80
2023/07/05 10:38:45;;;;;;;5.70;4.10;;;29.90;43.60;;;;;;5038953;28;20036;-82
2023/07/05 10:41:35;;;;;;;7.60;4.15;;;30.20;44.10;;;;;;5048682;28;20034;-81
2023/07/05 10:44:30;;;;;;;5.88;3.90;;;29.90;43.00;;;;;;5050159;28;20037;-81
2023/07/05 10:46:57;;;;;;;6.45;3.95;;;29.60;43.70;;;;;;5048374;28;20025;-82
2023/07/05 10:49:25;;;;;;;7.65;4.30;;;29.70;44.90;;;;;;5049689;28;20028;-80
2023/07/05 10:51:55;;;;;;;6.28;4.00;;;29.90;43.60;;;;;;5048534;28;20128;-81
2023/07/05 10:54:36;;;;;;;7.05;3.65;;;30.20;44.00;;;;;;5048263;28;20493;-81
2023/07/05 10:57:24;;;;;;;4.35;3.83;;;30.30;42.20;;;;;;5048477;28;20025;-81
2023/07/05 10:59:57;;;;;;;5.55;4.07;;;30.10;40.90;;;;;;5049652;28;20036;-83
2023/07/05 11:02:50;;;;;;;4.15;3.70;;;29.90;40.90;;;;;;5049690;28;20025;-81
2023/07/05 11:05:21;;;;;;;7.38;4.32;;;29.60;40.80;;;;;;5047839;28;20048;-81
2023/07/05 11:07:49;;;;;;;6.00;3.55;;;29.70;42.40;;;;;;5045518;28;20025;-82
2023/07/05 11:10:15;;;;;;;10.43;4.85;;;30.10;43.40;;;;;;5028223;28;20036;-82
2023/07/05 11:12:42;;;;;;;6.90;4.22;;;30.00;44.10;;;;;;5029395;28;20045;-82
2023/07/05 11:15:13;;;;;;;5.38;3.85;;;30.20;43.00;;;;;;5029515;28;20022;-82
2023/07/05 11:17:41;;;;;;;5.47;4.00;;;30.10;42.00;;;;;;5029307;28;20021;-82
2023/07/05 11:20:33;;;;;;;6.38;4.00;;;30.00;42.40;;;;;;5028236;28;20032;-79
2023/07/05 11:22:59;;;;;;;7.10;4.15;;;30.00;42.50;;;;;;5029746;28;20037;-78
2023/07/05 11:25:56;;;;;;;6.82;3.70;;;29.90;41.40;;;;;;5035938;28;20029;-79
2023/07/05 11:28:41;;;;;;;5.43;3.17;;;29.70;41.90;;;;;;5033083;28;20032;-80
2023/07/05 11:31:30;;;;;;;4.80;3.90;;;29.70;42.70;;;;;;5035876;28;20029;-79
2023/07/05 11:34:20;;;;;;;5.53;4.20;;;29.80;42.20;;;;;;5051154;28;20078;-79
2023/07/05 11:36:47;;;;;;;5.55;3.78;;;30.40;42.70;;;;;;5052807;28;20117;-79
2023/07/05 11:39:40;;;;;;;5.22;3.78;;;30.60;42.30;;;;;;5052637;28;20021;-80
2023/07/05 11:42:12;;;;;;;6.07;3.38;;;30.50;39.40;;;;;;5052807;28;20090;-80
2023/07/05 11:44:38;;;;;;;9.18;4.10;;;30.80;39.50;;;;;;5052890;28;20505;-80
2023/07/05 11:47:04;;;;;;;6.30;3.38;;;31.00;41.80;;;;;;5052668;28;20033;-80
2023/07/05 11:49:34;;;;;;;4.47;3.40;;;31.00;41.50;;;;;;5051229;28;20534;-80
2023/07/05 11:52:03;;;;;;;8.00;3.30;;;31.00;39.80;;;;;;5052460;28;20029;-80
2023/07/05 11:54:47;;;;;;;9.15;3.70;;;31.00;40.30;;;;;;5052802;28;20112;-80
2023/07/05 11:57:14;;;;;;;4.25;3.70;;;30.80;39.30;;;;;;5051113;28;20040;-80
2023/07/05 11:59:52;;;;;;;5.80;4.72;;;30.50;41.20;;;;;;5051233;28;20394;-79
2023/07/05 12:02:45;;;;;;;8.57;5.03;;;30.40;43.80;;;;;;5052524;28;20029;-80
2023/07/05 12:05:15;;;;;;;6.38;5.25;;;30.40;45.60;;;;;;5051170;28;20035;-79
2023/07/05 12:07:42;;;;;;;16.77;6.30;;;29.90;47.20;;;;;;5052103;28;20021;-80
2023/07/05 12:10:13;;;;;;;9.23;5.78;;;29.60;48.50;;;;;;5052206;28;20033;-78
2023/07/05 12:12:39;;;;;;;11.20;5.85;;;29.30;49.60;;;;;;5052221;28;20025;-79
2023/07/05 12:15:08;;;;;;;22.67;7.18;;;29.10;50.40;;;;;;5050883;28;20048;-80
2023/07/05 12:17:35;;;;;;;13.95;5.90;;;29.20;50.70;;;;;;5052058;28;20025;-79
2023/07/05 12:20:04;;;;;;;7.93;5.45;;;29.20;49.80;;;;;;5050683;28;20386;-79
2023/07/05 12:22:33;;;;;;;16.27;6.28;;;29.10;49.00;;;;;;5045601;27;20018;-79
2023/07/05 12:24:58;;;;;;;9.23;5.07;;;29.30;49.40;;;;;;5031485;27;20125;-79
2023/07/05 12:27:30;;;;;;;8.00;5.60;;;29.10;49.90;;;;;;5042749;28;20432;-78
2023/07/05 12:29:58;;;;;;;13.43;5.60;;;28.90;48.60;;;;;;5045586;28;20056;-78
2023/07/05 12:32:27;;;;;;;7.07;5.53;;;29.00;50.50;;;;;;5038659;28;20025;-77
2023/07/05 12:35:20;;;;;;;8.07;5.15;;;29.00;49.50;;;;;;5051115;28;20037;-80
2023/07/05 12:37:48;;;;;;;10.25;5.30;;;29.00;50.10;;;;;;5052003;28;20493;-78
2023/07/05 12:40:20;;;;;;;6.07;5.20;;;29.10;50.40;;;;;;5050629;28;20473;-80
2023/07/05 12:43:04;;;;;;;6.90;4.10;;;29.40;49.10;;;;;;5051906;28;20158;-79
2023/07/05 12:45:33;;;;;;;5.15;4.45;;;29.40;47.70;;;;;;5050685;28;20021;-79
2023/07/05 12:48:16;;;;;;;8.65;5.03;;;29.20;46.90;;;;;;5052012;28;20025;-79
2023/07/05 12:50:42;;;;;;;6.82;5.13;;;29.30;47.70;;;;;;5051906;28;20493;-80
2023/07/05 12:53:19;;;;;;;4.90;4.40;;;29.40;48.70;;;;;;5050467;28;20035;-80
2023/07/05 12:55:58;;;;;;;6.63;4.78;;;29.20;48.10;;;;;;5050086;28;20052;-79
2023/07/05 12:58:26;;;;;;;9.32;5.07;;;29.20;47.30;;;;;;5050313;28;20029;-80
2023/07/05 13:00:56;;;;;;;5.82;4.75;;;29.50;47.40;;;;;;5051401;28;20097;-79